Terminal Aerodrome Forecast
Issued by NWS Northern Indiana

Home | Current Version | Previous Version | Graphics & Text | Print | Product List | Glossary On
Versions: 1 2 3 4 5 6 7 8 9 10 11 12
000
FTUS43 KIWX 201100
TAFFWA
TAF
KFWA 201120Z 2012/2112 00000KT 3SM BR SCT005
      TEMPO 2012/2013 1SM BR
     FM201300 07003KT P6SM SCT025
     FM201600 10004KT P6SM SCT045
     FM210300 16003KT P6SM SKC
      TEMPO 2109/2112 3SM BR=

USA.gov is the U.S. government's official web portal to all federal, state and local government web resources and services.